createdAt,value
2023-02-27T00:01:51.684Z,100098.47
2023-02-27T00:04:18.444Z,100104.34
2023-02-27T00:06:45.084Z,100108.72
2023-02-27T00:09:11.719Z,100109.56
2023-02-27T00:11:38.337Z,100114.72
2023-02-27T00:14:06.510Z,100116.13
2023-02-27T00:16:33.173Z,100125.66
2023-02-27T00:18:59.844Z,100125.66
2023-02-27T00:21:27.523Z,100127.66
2023-02-27T00:23:54.370Z,100127.69
2023-02-27T00:26:21.064Z,100127.66
2023-02-27T00:28:47.697Z,100130.25
2023-02-27T00:31:14.691Z,100133.06
2023-02-27T00:33:41.696Z,100128.84
2023-02-27T00:36:08.425Z,100135.84
2023-02-27T00:38:35.184Z,100139.25
2023-02-27T00:41:01.979Z,100144.38
2023-02-27T00:43:28.579Z,100138.28
2023-02-27T00:45:55.222Z,100140.81
2023-02-27T00:48:22.022Z,100139.69
2023-02-27T00:50:49.933Z,100150.16
2023-02-27T00:53:16.909Z,100148.94
2023-02-27T00:55:43.679Z,100152.28
2023-02-27T00:58:10.396Z,100155.97
2023-02-27T01:00:37.195Z,100160.19
2023-02-27T01:03:03.980Z,100159.22
2023-02-27T01:05:30.839Z,100158.38
2023-02-27T01:07:57.676Z,100170.00
2023-02-27T01:10:24.398Z,100169.16
2023-02-27T01:12:51.613Z,100171.28
2023-02-27T01:15:18.486Z,100165.44
2023-02-27T01:17:45.396Z,100169.22
2023-02-27T01:20:12.889Z,100161.13
2023-02-27T01:22:40.038Z,100162.78
2023-02-27T01:25:07.556Z,100161.84
2023-02-27T01:27:34.311Z,100167.97
2023-02-27T01:30:01.175Z,100170.84
2023-02-27T01:32:28.055Z,100172.72
2023-02-27T01:34:54.724Z,100170.16
2023-02-27T01:37:21.441Z,100165.03
2023-02-27T01:39:48.135Z,100168.78
2023-02-27T01:42:26.784Z,100178.09
2023-02-27T01:45:19.117Z,100178.28
2023-02-27T01:47:50.337Z,100172.66
2023-02-27T01:50:19.108Z,100173.59
2023-02-27T01:52:52.521Z,100173.59
2023-02-27T01:55:20.274Z,100179.84
2023-02-27T01:57:49.619Z,100174.72
2023-02-27T02:00:17.338Z,100184.31
2023-02-27T02:03:09.104Z,100183.97
2023-02-27T02:05:35.804Z,100185.84
2023-02-27T02:08:03.879Z,100195.22
2023-02-27T02:10:32.471Z,100200.47
2023-02-27T02:12:59.525Z,100203.47
2023-02-27T02:15:36.691Z,100201.19
2023-02-27T02:18:38.191Z,100209.00
2023-02-27T02:21:50.195Z,100216.72
2023-02-27T02:24:29.389Z,100217.09
2023-02-27T02:27:11.178Z,100227.63
2023-02-27T02:30:22.147Z,100225.50
2023-02-27T02:33:19.061Z,100228.69
2023-02-27T02:36:28.496Z,100225.16
2023-02-27T02:39:25.510Z,100231.09
2023-02-27T02:42:20.261Z,100227.63
2023-02-27T02:45:05.693Z,100235.06
2023-02-27T02:48:08.625Z,100233.63
2023-02-27T02:51:01.435Z,100237.94
2023-02-27T02:53:41.926Z,100238.00
2023-02-27T02:56:43.345Z,100241.38
2023-02-27T02:59:22.292Z,100239.66
2023-02-27T03:02:06.598Z,100251.75
2023-02-27T03:04:35.632Z,100238.00
2023-02-27T03:07:17.058Z,100240.72
2023-02-27T03:10:08.301Z,100238.06
2023-02-27T03:12:40.355Z,100247.56
2023-02-27T03:15:23.242Z,100249.41
2023-02-27T03:18:15.080Z,100253.88
2023-02-27T03:20:56.978Z,100255.44
2023-02-27T03:23:29.789Z,100254.66
2023-02-27T03:25:58.353Z,100256.66
2023-02-27T03:28:30.090Z,100260.78
2023-02-27T03:31:01.688Z,100265.09
2023-02-27T03:33:34.385Z,100263.63
2023-02-27T03:36:28.740Z,100269.75
2023-02-27T03:39:08.781Z,100268.22
2023-02-27T03:41:37.097Z,100272.38
2023-02-27T03:44:03.816Z,100273.75
2023-02-27T03:46:30.970Z,100281.22
2023-02-27T03:48:57.760Z,100276.59
2023-02-27T03:51:26.174Z,100278.78
2023-02-27T03:54:30.429Z,100277.94
2023-02-27T03:57:02.080Z,100285.19
2023-02-27T03:59:31.129Z,100290.59
2023-02-27T04:02:00.696Z,100293.88
2023-02-27T04:04:29.258Z,100285.84
2023-02-27T04:07:02.282Z,100286.50
2023-02-27T04:09:55.467Z,100287.50
2023-02-27T04:12:37.317Z,100288.56
2023-02-27T04:15:17.839Z,100288.28
2023-02-27T04:17:58.812Z,100298.69
2023-02-27T04:20:34.562Z,100287.50
2023-02-27T04:23:45.821Z,100289.06
2023-02-27T04:26:15.070Z,100291.91
2023-02-27T04:28:48.468Z,100294.69
2023-02-27T04:31:31.336Z,100295.22
2023-02-27T04:34:15.593Z,100302.00
2023-02-27T04:36:53.013Z,100303.97
2023-02-27T04:39:52.191Z,100301.59
2023-02-27T04:42:28.819Z,100305.22
2023-02-27T04:45:02.854Z,100307.03
2023-02-27T04:47:44.280Z,100298.78
2023-02-27T04:50:34.019Z,100299.78
2023-02-27T04:53:09.372Z,100306.44
2023-02-27T04:55:50.777Z,100317.56
2023-02-27T04:58:50.732Z,100320.56
2023-02-27T05:01:26.700Z,100320.09
2023-02-27T05:03:54.882Z,100322.75
2023-02-27T05:06:27.443Z,100332.41
2023-02-27T05:09:06.684Z,100328.22
2023-02-27T05:11:41.503Z,100341.06
2023-02-27T05:14:42.883Z,100341.16
2023-02-27T05:17:26.264Z,100345.03
2023-02-27T05:19:52.956Z,100339.59
2023-02-27T05:22:47.598Z,100340.06
2023-02-27T05:25:28.932Z,100342.72
2023-02-27T05:28:12.845Z,100355.59
2023-02-27T05:31:05.471Z,100355.75
2023-02-27T05:34:03.121Z,100355.69
2023-02-27T05:36:46.004Z,100359.81
2023-02-27T05:39:16.054Z,100369.91
2023-02-27T05:41:53.115Z,100367.13
2023-02-27T05:44:34.997Z,100370.63
2023-02-27T05:47:14.042Z,100374.47
2023-02-27T05:50:10.377Z,100377.13
2023-02-27T05:52:38.620Z,100381.41
2023-02-27T05:55:23.394Z,100382.69
2023-02-27T05:58:27.172Z,100383.13
2023-02-27T06:01:07.034Z,100389.06
2023-02-27T06:03:36.113Z,100393.38
2023-02-27T06:06:06.677Z,100399.50
2023-02-27T06:08:33.522Z,100404.78
2023-02-27T06:11:00.140Z,100412.28
2023-02-27T06:13:26.776Z,100417.47
2023-02-27T06:15:53.558Z,100413.44
2023-02-27T06:18:20.281Z,100423.16
2023-02-27T06:20:47.760Z,100435.34
2023-02-27T06:23:14.508Z,100441.19
2023-02-27T06:25:41.444Z,100434.88
2023-02-27T06:28:08.335Z,100448.28
2023-02-27T06:30:36.161Z,100452.09
2023-02-27T06:33:03.465Z,100461.66
2023-02-27T06:35:30.721Z,100464.47
2023-02-27T06:37:57.950Z,100484.59
2023-02-27T06:40:25.428Z,100478.69
2023-02-27T06:42:52.150Z,100479.00
2023-02-27T06:45:18.904Z,100490.63
2023-02-27T06:47:45.614Z,100495.94
2023-02-27T06:50:13.794Z,100499.44
2023-02-27T06:52:40.884Z,100498.56
2023-02-27T06:55:09.064Z,100504.81
2023-02-27T06:57:35.788Z,100506.47
2023-02-27T07:00:04.332Z,100508.28
2023-02-27T07:02:31.348Z,100503.16
2023-02-27T07:04:58.140Z,100512.47
2023-02-27T07:07:35.354Z,100511.66
2023-02-27T07:10:06.505Z,100521.44
2023-02-27T07:12:33.138Z,100520.84
2023-02-27T07:14:59.775Z,100515.47
2023-02-27T07:17:26.452Z,100520.59
2023-02-27T07:19:55.787Z,100522.50
2023-02-27T07:22:22.419Z,100525.22
2023-02-27T07:24:49.315Z,100520.72
2023-02-27T07:27:15.997Z,100531.97
2023-02-27T07:29:42.637Z,100527.53
2023-02-27T07:32:09.387Z,100532.13
2023-02-27T07:34:36.225Z,100529.44
2023-02-27T07:37:03.057Z,100533.41
2023-02-27T07:39:29.729Z,100534.59
2023-02-27T07:41:56.463Z,100540.88
2023-02-27T07:44:23.071Z,100541.78
2023-02-27T07:46:49.853Z,100540.09
2023-02-27T07:49:16.551Z,100540.03
2023-02-27T07:51:43.145Z,100550.22
2023-02-27T07:54:09.805Z,100547.31
2023-02-27T07:56:36.493Z,100549.53
2023-02-27T07:59:03.151Z,100551.53
2023-02-27T08:01:29.835Z,100551.75
2023-02-27T08:03:57.311Z,100549.16
2023-02-27T08:06:24.188Z,100559.97
2023-02-27T08:08:51.564Z,100565.97
2023-02-27T08:11:18.603Z,100559.69
2023-02-27T08:14:01.736Z,100569.63
2023-02-27T08:16:30.469Z,100569.81
2023-02-27T08:18:58.164Z,100573.53
2023-02-27T08:21:25.569Z,100577.13
2023-02-27T08:23:52.440Z,100585.16
2023-02-27T08:26:19.074Z,100586.97
2023-02-27T08:28:45.958Z,100579.78
2023-02-27T08:31:12.829Z,100589.88
2023-02-27T08:33:40.252Z,100598.34
2023-02-27T08:36:07.385Z,100602.22
2023-02-27T08:38:34.064Z,100611.25
2023-02-27T08:41:00.734Z,100616.97
2023-02-27T08:43:27.375Z,100622.41
2023-02-27T08:45:54.131Z,100620.75
2023-02-27T08:48:20.887Z,100625.91
2023-02-27T08:50:47.767Z,100625.22
2023-02-27T08:53:14.631Z,100617.25
2023-02-27T08:55:41.910Z,100625.84
2023-02-27T08:58:09.592Z,100628.69
2023-02-27T09:00:36.306Z,100636.06
2023-02-27T09:03:03.176Z,100628.09
2023-02-27T09:05:29.861Z,100631.16
2023-02-27T09:07:56.474Z,100634.00
2023-02-27T09:10:23.288Z,100633.75
2023-02-27T09:12:49.906Z,100622.69
2023-02-27T09:15:16.816Z,100631.63
2023-02-27T09:17:43.729Z,100634.28
2023-02-27T09:20:11.616Z,100629.84
2023-02-27T09:22:39.175Z,100634.47
2023-02-27T09:25:09.185Z,100642.16
2023-02-27T09:27:35.935Z,100641.44
2023-02-27T09:30:02.609Z,100652.41
2023-02-27T09:32:29.384Z,100651.56
2023-02-27T09:34:56.124Z,100646.69
2023-02-27T09:37:22.746Z,100651.69
2023-02-27T09:39:49.408Z,100641.84
2023-02-27T09:42:22.908Z,100641.22
2023-02-27T09:44:52.835Z,100639.81
2023-02-27T09:47:25.829Z,100647.56
2023-02-27T09:50:27.408Z,100640.63
2023-02-27T09:52:54.465Z,100645.97
2023-02-27T09:55:23.014Z,100646.78
2023-02-27T09:57:54.466Z,100655.56
2023-02-27T10:00:45.292Z,100651.31
2023-02-27T10:03:30.532Z,100656.56
2023-02-27T10:06:09.967Z,100659.03
2023-02-27T10:08:48.969Z,100655.47
2023-02-27T10:11:24.604Z,100649.91
2023-02-27T10:14:07.103Z,100649.75
2023-02-27T10:16:34.851Z,100652.31
2023-02-27T10:19:05.724Z,100654.84
2023-02-27T10:21:41.564Z,100659.56
2023-02-27T10:24:21.828Z,100656.44
2023-02-27T10:26:49.481Z,100641.25
2023-02-27T10:29:21.292Z,100642.94
2023-02-27T10:31:54.464Z,100643.47
2023-02-27T10:34:23.386Z,100641.16
2023-02-27T10:36:50.037Z,100641.69
2023-02-27T10:39:18.876Z,100641.81
2023-02-27T10:41:46.968Z,100641.13
2023-02-27T10:44:17.484Z,100639.63
2023-02-27T10:46:45.098Z,100642.28
2023-02-27T10:49:19.158Z,100644.78
2023-02-27T10:51:48.009Z,100642.25
2023-02-27T10:54:20.555Z,100643.03
2023-02-27T10:56:58.738Z,100652.53
2023-02-27T10:59:34.394Z,100638.59
2023-02-27T11:02:04.723Z,100641.28
2023-02-27T11:04:38.745Z,100646.47
2023-02-27T11:07:10.041Z,100640.47
2023-02-27T11:09:37.772Z,100637.81
2023-02-27T11:12:32.434Z,100640.59
2023-02-27T11:15:01.782Z,100640.53
2023-02-27T11:17:32.161Z,100649.19
2023-02-27T11:20:01.051Z,100650.09
2023-02-27T11:22:30.905Z,100654.34
2023-02-27T11:25:22.509Z,100654.72
2023-02-27T11:27:49.917Z,100662.16
2023-02-27T11:30:30.409Z,100655.31
2023-02-27T11:33:00.215Z,100650.06
2023-02-27T11:35:39.666Z,100650.81
2023-02-27T11:38:17.629Z,100646.63
2023-02-27T11:41:13.678Z,100656.22
2023-02-27T11:43:52.585Z,100655.34
2023-02-27T11:46:46.495Z,100658.91
2023-02-27T11:49:17.776Z,100652.94
2023-02-27T11:52:09.426Z,100654.63
2023-02-27T11:54:39.064Z,100648.47
2023-02-27T11:57:25.637Z,100645.84
2023-02-27T11:59:57.113Z,100642.38
2023-02-27T12:02:39.431Z,100646.03
2023-02-27T12:05:12.116Z,100641.28
2023-02-27T12:07:46.528Z,100648.94
2023-02-27T12:10:20.520Z,100646.09
2023-02-27T12:12:52.221Z,100648.63
2023-02-27T12:15:42.226Z,100637.44
2023-02-27T12:18:28.551Z,100648.72
2023-02-27T12:21:10.870Z,100653.97
2023-02-27T12:23:45.121Z,100654.34
2023-02-27T12:26:33.192Z,100648.25
2023-02-27T12:28:59.974Z,100660.53
2023-02-27T12:31:35.601Z,100658.00
2023-02-27T12:34:05.419Z,100662.53
2023-02-27T12:36:32.146Z,100666.75
2023-02-27T12:38:58.953Z,100664.03
2023-02-27T12:42:12.348Z,100669.16
2023-02-27T12:45:07.054Z,100673.53
2023-02-27T12:48:10.672Z,100670.19
2023-02-27T12:51:17.002Z,100672.97
2023-02-27T12:53:50.851Z,100673.03
2023-02-27T12:56:23.797Z,100680.78
2023-02-27T12:59:03.159Z,100681.63
2023-02-27T13:01:54.452Z,100677.34
2023-02-27T13:04:44.329Z,100681.75
2023-02-27T13:07:38.122Z,100675.63
2023-02-27T13:10:19.516Z,100676.50
2023-02-27T13:13:22.949Z,100678.28
2023-02-27T13:15:54.790Z,100682.59
2023-02-27T13:18:41.744Z,100673.84
2023-02-27T13:21:32.690Z,100678.97
2023-02-27T13:24:25.083Z,100685.00
2023-02-27T13:27:17.856Z,100684.94
2023-02-27T13:30:10.387Z,100690.13
2023-02-27T13:33:04.845Z,100691.03
2023-02-27T13:35:56.489Z,100694.50
2023-02-27T13:38:48.795Z,100702.34
2023-02-27T13:41:21.587Z,100689.75
2023-02-27T13:43:52.731Z,100690.81
2023-02-27T13:46:26.506Z,100695.28
2023-02-27T13:48:54.635Z,100691.91
2023-02-27T13:51:36.449Z,100694.66
2023-02-27T13:54:14.986Z,100686.81
2023-02-27T13:56:46.109Z,100693.53
2023-02-27T13:59:28.971Z,100687.44
2023-02-27T14:01:58.356Z,100693.34
2023-02-27T14:04:28.137Z,100690.03
2023-02-27T14:07:07.508Z,100692.94
2023-02-27T14:09:39.086Z,100699.75
2023-02-27T14:12:19.204Z,100690.09
2023-02-27T14:14:49.488Z,100688.41
2023-02-27T14:17:35.028Z,100684.84
2023-02-27T14:20:24.961Z,100690.28
2023-02-27T14:23:23.576Z,100683.44
2023-02-27T14:25:50.328Z,100694.81
2023-02-27T14:28:55.411Z,100696.56
2023-02-27T14:31:32.158Z,100688.66
2023-02-27T14:34:01.073Z,100693.06
2023-02-27T14:36:32.117Z,100692.06
2023-02-27T14:39:00.901Z,100700.88
2023-02-27T14:41:45.345Z,100697.28
2023-02-27T14:44:25.147Z,100695.66
2023-02-27T14:46:55.416Z,100704.41
2023-02-27T14:49:24.822Z,100706.09
2023-02-27T14:51:52.234Z,100700.03
2023-02-27T14:54:26.575Z,100713.97
2023-02-27T14:57:05.427Z,100712.19
2023-02-27T14:59:53.755Z,100704.28
2023-02-27T15:02:27.328Z,100711.28
2023-02-27T15:05:12.129Z,100710.44
2023-02-27T15:07:39.286Z,100717.44
2023-02-27T15:10:09.397Z,100724.41
2023-02-27T15:12:39.986Z,100729.63
2023-02-27T15:15:08.500Z,100729.63
2023-02-27T15:17:41.575Z,100737.50
2023-02-27T15:20:28.180Z,100741.00
2023-02-27T15:22:54.834Z,100742.69
2023-02-27T15:25:34.546Z,100747.09
2023-02-27T15:28:18.034Z,100740.97
2023-02-27T15:30:50.712Z,100743.59
2023-02-27T15:33:18.579Z,100744.44
2023-02-27T15:35:46.373Z,100763.63
2023-02-27T15:38:29.364Z,100761.00
2023-02-27T15:40:58.159Z,100767.06
2023-02-27T15:43:27.345Z,100769.66
2023-02-27T15:45:55.137Z,100770.50
2023-02-27T15:48:22.695Z,100783.59
2023-02-27T15:50:53.971Z,100780.94
2023-02-27T15:53:23.526Z,100786.88
2023-02-27T15:55:53.839Z,100796.41
2023-02-27T15:58:30.240Z,100796.47
2023-02-27T16:01:07.250Z,100799.09
2023-02-27T16:03:38.789Z,100803.34
2023-02-27T16:06:18.979Z,100794.63
2023-02-27T16:08:53.002Z,100801.47
2023-02-27T16:11:25.591Z,100813.66
2023-02-27T16:13:53.252Z,100812.63
2023-02-27T16:16:19.876Z,100807.44
2023-02-27T16:18:52.859Z,100812.59
2023-02-27T16:21:22.522Z,100821.22
2023-02-27T16:23:49.396Z,100822.81
2023-02-27T16:26:28.313Z,100824.56
2023-02-27T16:28:56.223Z,100831.31
2023-02-27T16:31:24.451Z,100832.16
2023-02-27T16:33:51.669Z,100840.00
2023-02-27T16:36:25.297Z,100842.56
2023-02-27T16:38:52.029Z,100852.03
2023-02-27T16:41:23.393Z,100852.81
2023-02-27T16:43:53.149Z,100867.31
2023-02-27T16:46:21.746Z,100865.38
2023-02-27T16:48:54.103Z,100876.75
2023-02-27T16:51:23.834Z,100871.56
2023-02-27T16:53:55.218Z,100881.97
2023-02-27T16:56:37.293Z,100878.38
2023-02-27T16:59:04.988Z,100883.56
2023-02-27T17:01:33.953Z,100893.88
2023-02-27T17:04:00.993Z,100895.47
2023-02-27T17:06:28.222Z,100891.94
2023-02-27T17:08:55.297Z,100899.72
2023-02-27T17:11:22.230Z,100901.34
2023-02-27T17:13:48.915Z,100900.28
2023-02-27T17:16:16.394Z,100901.13
2023-02-27T17:18:43.119Z,100904.56
2023-02-27T17:21:09.762Z,100902.59
2023-02-27T17:23:36.414Z,100899.13
2023-02-27T17:26:03.321Z,100901.59
2023-02-27T17:28:29.930Z,100911.78
2023-02-27T17:30:56.694Z,100913.53
2023-02-27T17:33:23.396Z,100909.88
2023-02-27T17:35:50.417Z,100914.81
2023-02-27T17:38:17.061Z,100918.34
2023-02-27T17:40:43.695Z,100918.34
2023-02-27T17:43:10.373Z,100918.19
2023-02-27T17:45:38.458Z,100920.97
2023-02-27T17:48:05.539Z,100927.09
2023-02-27T17:50:32.177Z,100918.16
2023-02-27T17:52:58.780Z,100922.22
2023-02-27T17:55:25.404Z,100927.41
2023-02-27T17:57:52.044Z,100934.34
2023-02-27T18:00:19.030Z,100949.28
2023-02-27T18:02:45.893Z,100954.25
2023-02-27T18:05:12.671Z,100965.88
2023-02-27T18:07:40.016Z,100971.00
2023-02-27T18:10:08.587Z,100978.94
2023-02-27T18:12:36.981Z,100973.81
2023-02-27T18:15:04.313Z,100973.66
2023-02-27T18:17:30.949Z,100979.50
2023-02-27T18:19:57.665Z,100980.38
2023-02-27T18:22:24.513Z,100980.16
2023-02-27T18:24:55.143Z,100981.63
2023-02-27T18:27:22.267Z,100973.72
2023-02-27T18:29:49.755Z,100980.28
2023-02-27T18:32:17.107Z,100983.84
2023-02-27T18:34:44.099Z,100973.78
2023-02-27T18:37:10.900Z,100980.34
2023-02-27T18:39:37.653Z,100982.16
2023-02-27T18:42:06.468Z,100981.63
2023-02-27T18:44:33.471Z,100988.50
2023-02-27T18:47:00.098Z,100998.81
2023-02-27T18:49:29.587Z,101003.16
2023-02-27T18:51:56.630Z,101001.38
2023-02-27T18:54:23.364Z,101002.56
2023-02-27T18:56:51.033Z,101012.59
2023-02-27T18:59:17.618Z,101019.75
2023-02-27T19:01:44.451Z,101025.41
2023-02-27T19:04:11.135Z,101017.97
2023-02-27T19:06:40.544Z,101025.63
2023-02-27T19:09:08.874Z,101031.91
2023-02-27T19:11:35.814Z,101031.03
2023-02-27T19:14:05.743Z,101038.63
2023-02-27T19:16:33.348Z,101040.97
2023-02-27T19:19:01.623Z,101040.19
2023-02-27T19:21:28.623Z,101045.09
2023-02-27T19:23:55.673Z,101052.06
2023-02-27T19:26:23.147Z,101055.81
2023-02-27T19:28:54.206Z,101055.97
2023-02-27T19:31:23.341Z,101070.25
2023-02-27T19:33:50.277Z,101065.41
2023-02-27T19:36:18.830Z,101059.38
2023-02-27T19:38:45.462Z,101054.69
2023-02-27T19:41:14.089Z,101054.91
2023-02-27T19:43:41.156Z,101045.94
2023-02-27T19:46:14.240Z,101042.09
2023-02-27T19:48:41.209Z,101045.69
2023-02-27T19:51:10.300Z,101045.47
2023-02-27T19:53:38.724Z,101055.22
2023-02-27T19:56:12.148Z,101049.41
2023-02-27T19:58:38.866Z,101052.09
2023-02-27T20:01:06.134Z,101071.09
2023-02-27T20:03:33.441Z,101078.84
2023-02-27T20:06:00.549Z,101078.31
2023-02-27T20:08:27.470Z,101084.34
2023-02-27T20:10:55.971Z,101091.13
2023-02-27T20:13:22.746Z,101103.16
2023-02-27T20:16:01.062Z,101116.84
2023-02-27T20:18:29.131Z,101107.44
2023-02-27T20:21:09.931Z,101093.28
2023-02-27T20:23:39.539Z,101105.47
2023-02-27T20:26:18.327Z,101097.53
2023-02-27T20:28:46.301Z,101096.16
2023-02-27T20:31:15.658Z,101090.56
2023-02-27T20:33:42.709Z,101093.63
2023-02-27T20:36:11.263Z,101093.34
2023-02-27T20:38:39.241Z,101094.53
2023-02-27T20:41:10.175Z,101102.31
2023-02-27T20:43:37.580Z,101114.88
2023-02-27T20:46:05.987Z,101113.09
2023-02-27T20:48:33.399Z,101113.84
2023-02-27T20:51:11.985Z,101116.44
2023-02-27T20:53:40.817Z,101117.34
2023-02-27T20:56:09.236Z,101119.47
2023-02-27T20:58:36.309Z,101121.00
2023-02-27T21:01:08.080Z,101117.91
2023-02-27T21:03:38.564Z,101116.44
2023-02-27T21:06:07.850Z,101126.53
2023-02-27T21:08:40.879Z,101129.16
2023-02-27T21:11:17.119Z,101134.69
2023-02-27T21:13:43.890Z,101125.75
2023-02-27T21:16:11.699Z,101130.13
2023-02-27T21:18:38.901Z,101142.19
2023-02-27T21:21:08.130Z,101136.56
2023-02-27T21:23:35.806Z,101146.63
2023-02-27T21:26:04.841Z,101159.91
2023-02-27T21:28:31.488Z,101157.13
2023-02-27T21:30:58.099Z,101157.94
2023-02-27T21:33:24.831Z,101153.03
2023-02-27T21:35:51.481Z,101146.44
2023-02-27T21:38:18.156Z,101151.75
2023-02-27T21:40:44.863Z,101146.38
2023-02-27T21:43:11.729Z,101141.44
2023-02-27T21:45:38.336Z,101142.66
2023-02-27T21:48:05.249Z,101145.09
2023-02-27T21:50:32.047Z,101140.78
2023-02-27T21:52:58.711Z,101148.22
2023-02-27T21:55:25.311Z,101153.84
2023-02-27T21:57:52.003Z,101158.75
2023-02-27T22:00:19.353Z,101160.22
2023-02-27T22:02:46.184Z,101144.13
2023-02-27T22:05:12.841Z,101141.09
2023-02-27T22:07:39.656Z,101143.59
2023-02-27T22:10:06.546Z,101141.78
2023-02-27T22:12:33.257Z,101135.28
2023-02-27T22:14:59.932Z,101142.91
2023-02-27T22:17:26.794Z,101143.72
2023-02-27T22:19:53.586Z,101143.09
2023-02-27T22:22:20.168Z,101147.31
2023-02-27T22:24:46.917Z,101157.19
2023-02-27T22:27:13.533Z,101151.78
2023-02-27T22:29:42.207Z,101155.31
2023-02-27T22:32:09.545Z,101146.63
2023-02-27T22:34:36.210Z,101147.03
2023-02-27T22:37:02.862Z,101153.88
2023-02-27T22:39:29.540Z,101159.94
2023-02-27T22:41:56.951Z,101150.56
2023-02-27T22:44:23.955Z,101143.25
2023-02-27T22:46:50.888Z,101150.00
2023-02-27T22:49:20.963Z,101166.16
2023-02-27T22:51:50.339Z,101172.84
2023-02-27T22:54:19.357Z,101168.88
2023-02-27T22:56:49.493Z,101173.47
2023-02-27T22:59:16.170Z,101164.06
2023-02-27T23:01:42.977Z,101162.56
2023-02-27T23:04:11.287Z,101171.28
2023-02-27T23:06:40.070Z,101171.03
2023-02-27T23:09:09.280Z,101165.09
2023-02-27T23:11:36.014Z,101163.38
2023-02-27T23:14:02.663Z,101166.22
2023-02-27T23:16:29.641Z,101165.72
2023-02-27T23:18:58.411Z,101175.06
2023-02-27T23:21:29.072Z,101165.53
2023-02-27T23:23:56.132Z,101166.19
2023-02-27T23:26:23.258Z,101165.56
2023-02-27T23:28:50.114Z,101163.78
2023-02-27T23:31:16.794Z,101162.38
2023-02-27T23:33:43.758Z,101171.56
2023-02-27T23:36:10.434Z,101165.56
2023-02-27T23:38:37.220Z,101168.03
2023-02-27T23:41:08.616Z,101176.22
2023-02-27T23:43:35.995Z,101186.97
2023-02-27T23:46:10.680Z,101184.38
2023-02-27T23:48:37.679Z,101181.63
2023-02-27T23:51:06.452Z,101183.72
2023-02-27T23:53:34.338Z,101188.09
2023-02-27T23:56:01.090Z,101199.03
2023-02-27T23:58:27.802Z,101191.13
